Аэропорт: Михайловка. Барнаул

ICAO: UNBB

METAR:
2018/05/20 23:00
UNBB 202300Z 17003MPS 9999 -RA SCT040 07/M01 Q1023 R24/290155 NOSIG RMK QFE745
METAR:
2018/05/20 21:21
TAF UNBB 202000Z 2021/2121 18006G13MPS 9999 BKN020CB 
      TEMPO 2021/2103 1200 SHRA SCT003 BKN011CB 
      TEMPO 2103/2121 24011G18MPS 3100 -SHRA SCT002 BKN011CB PROB40 
      TEMPO 2103/2121 -TSRA